sensor_id;sensor_type;location;lat;lon;timestamp;temperature;humidity
20102;DHT22;10210;52.284;9.892;2023-07-24T00:02:05;23.00;99.90
20102;DHT22;10210;52.284;9.892;2023-07-24T00:04:31;23.00;99.90
20102;DHT22;10210;52.284;9.892;2023-07-24T00:06:57;23.00;99.90
20102;DHT22;10210;52.284;9.892;2023-07-24T00:09:23;22.90;99.90
20102;DHT22;10210;52.284;9.892;2023-07-24T00:11:49;23.00;99.90
20102;DHT22;10210;52.284;9.892;2023-07-24T00:14:15;23.00;99.90
20102;DHT22;10210;52.284;9.892;2023-07-24T00:16:41;23.00;99.90
20102;DHT22;10210;52.284;9.892;2023-07-24T00:19:07;23.00;99.90
20102;DHT22;10210;52.284;9.892;2023-07-24T00:21:33;22.90;99.90
20102;DHT22;10210;52.284;9.892;2023-07-24T00:23:59;22.90;99.90
20102;DHT22;10210;52.284;9.892;2023-07-24T00:26:25;22.90;99.90
20102;DHT22;10210;52.284;9.892;2023-07-24T00:28:50;22.90;99.90
20102;DHT22;10210;52.284;9.892;2023-07-24T00:31:16;22.90;99.90
20102;DHT22;10210;52.284;9.892;2023-07-24T00:33:42;22.90;99.90
20102;DHT22;10210;52.284;9.892;2023-07-24T00:36:08;22.90;99.90
20102;DHT22;10210;52.284;9.892;2023-07-24T00:38:34;22.80;99.90
20102;DHT22;10210;52.284;9.892;2023-07-24T00:40:59;22.80;99.90
20102;DHT22;10210;52.284;9.892;2023-07-24T00:43:25;22.80;99.90
20102;DHT22;10210;52.284;9.892;2023-07-24T00:45:51;22.80;99.90
20102;DHT22;10210;52.284;9.892;2023-07-24T00:48:17;22.80;99.90
20102;DHT22;10210;52.284;9.892;2023-07-24T00:50:44;22.80;99.90
20102;DHT22;10210;52.284;9.892;2023-07-24T00:53:11;22.70;99.90
20102;DHT22;10210;52.284;9.892;2023-07-24T00:55:39;22.70;99.90
20102;DHT22;10210;52.284;9.892;2023-07-24T00:58:05;22.70;99.90
20102;DHT22;10210;52.284;9.892;2023-07-24T01:00:31;22.60;99.90
20102;DHT22;10210;52.284;9.892;2023-07-24T01:02:59;22.60;99.90
20102;DHT22;10210;52.284;9.892;2023-07-24T01:05:25;22.60;99.90
20102;DHT22;10210;52.284;9.892;2023-07-24T01:07:54;22.60;99.90
20102;DHT22;10210;52.284;9.892;2023-07-24T01:10:20;22.50;99.90
20102;DHT22;10210;52.284;9.892;2023-07-24T01:12:56;22.50;99.90
20102;DHT22;10210;52.284;9.892;2023-07-24T01:15:37;22.50;99.90
20102;DHT22;10210;52.284;9.892;2023-07-24T01:18:11;22.50;99.90
20102;DHT22;10210;52.284;9.892;2023-07-24T01:20:47;22.60;99.90
20102;DHT22;10210;52.284;9.892;2023-07-24T01:23:44;22.50;99.90
20102;DHT22;10210;52.284;9.892;2023-07-24T01:26:21;22.50;99.90
20102;DHT22;10210;52.284;9.892;2023-07-24T01:28:49;22.60;99.90
20102;DHT22;10210;52.284;9.892;2023-07-24T01:31:15;22.50;99.90
20102;DHT22;10210;52.284;9.892;2023-07-24T01:33:42;22.60;99.90
20102;DHT22;10210;52.284;9.892;2023-07-24T01:36:08;22.60;99.90
20102;DHT22;10210;52.284;9.892;2023-07-24T01:38:35;22.60;99.90
20102;DHT22;10210;52.284;9.892;2023-07-24T01:41:05;22.60;99.90
20102;DHT22;10210;52.284;9.892;2023-07-24T01:43:31;22.60;99.90
20102;DHT22;10210;52.284;9.892;2023-07-24T01:46:00;22.60;99.90
20102;DHT22;10210;52.284;9.892;2023-07-24T01:48:26;22.60;99.90
20102;DHT22;10210;52.284;9.892;2023-07-24T01:50:52;22.60;99.90
20102;DHT22;10210;52.284;9.892;2023-07-24T01:53:17;22.60;99.90
20102;DHT22;10210;52.284;9.892;2023-07-24T01:55:43;22.60;99.90
20102;DHT22;10210;52.284;9.892;2023-07-24T01:58:08;22.60;99.90
20102;DHT22;10210;52.284;9.892;2023-07-24T02:00:34;22.60;99.90
20102;DHT22;10210;52.284;9.892;2023-07-24T02:03:00;22.60;99.90
20102;DHT22;10210;52.284;9.892;2023-07-24T02:05:26;22.60;99.90
20102;DHT22;10210;52.284;9.892;2023-07-24T02:07:51;22.50;99.90
20102;DHT22;10210;52.284;9.892;2023-07-24T02:10:17;22.50;99.90
20102;DHT22;10210;52.284;9.892;2023-07-24T02:12:43;22.60;99.90
20102;DHT22;10210;52.284;9.892;2023-07-24T02:15:09;22.50;99.90
20102;DHT22;10210;52.284;9.892;2023-07-24T02:17:35;22.60;99.90
20102;DHT22;10210;52.284;9.892;2023-07-24T02:20:00;22.60;99.90
20102;DHT22;10210;52.284;9.892;2023-07-24T02:22:26;22.60;99.90
20102;DHT22;10210;52.284;9.892;2023-07-24T02:24:52;22.50;99.90
20102;DHT22;10210;52.284;9.892;2023-07-24T02:27:30;22.50;99.90
20102;DHT22;10210;52.284;9.892;2023-07-24T02:29:57;22.50;99.90
20102;DHT22;10210;52.284;9.892;2023-07-24T02:32:23;22.50;99.90
20102;DHT22;10210;52.284;9.892;2023-07-24T02:34:50;22.50;99.90
20102;DHT22;10210;52.284;9.892;2023-07-24T02:37:16;22.50;99.90
20102;DHT22;10210;52.284;9.892;2023-07-24T02:39:42;22.60;99.90
20102;DHT22;10210;52.284;9.892;2023-07-24T02:42:08;22.50;99.90
20102;DHT22;10210;52.284;9.892;2023-07-24T02:44:34;22.50;99.90
20102;DHT22;10210;52.284;9.892;2023-07-24T02:47:00;22.50;99.90
20102;DHT22;10210;52.284;9.892;2023-07-24T02:49:26;22.50;99.90
20102;DHT22;10210;52.284;9.892;2023-07-24T02:51:52;22.50;99.90
20102;DHT22;10210;52.284;9.892;2023-07-24T02:54:17;22.50;99.90
20102;DHT22;10210;52.284;9.892;2023-07-24T02:56:43;22.50;99.90
20102;DHT22;10210;52.284;9.892;2023-07-24T02:59:08;22.40;99.90
20102;DHT22;10210;52.284;9.892;2023-07-24T03:01:34;22.40;99.90
20102;DHT22;10210;52.284;9.892;2023-07-24T03:04:00;22.40;99.90
20102;DHT22;10210;52.284;9.892;2023-07-24T03:06:26;22.40;99.90
20102;DHT22;10210;52.284;9.892;2023-07-24T03:08:52;22.40;99.90
20102;DHT22;10210;52.284;9.892;2023-07-24T03:11:17;22.40;99.90
20102;DHT22;10210;52.284;9.892;2023-07-24T03:13:44;22.30;99.90
20102;DHT22;10210;52.284;9.892;2023-07-24T03:16:09;22.30;99.90
20102;DHT22;10210;52.284;9.892;2023-07-24T03:18:35;22.40;99.90
20102;DHT22;10210;52.284;9.892;2023-07-24T03:21:01;22.30;99.90
20102;DHT22;10210;52.284;9.892;2023-07-24T03:23:26;22.30;99.90
20102;DHT22;10210;52.284;9.892;2023-07-24T03:25:52;22.30;99.90
20102;DHT22;10210;52.284;9.892;2023-07-24T03:28:18;22.20;99.90
20102;DHT22;10210;52.284;9.892;2023-07-24T03:30:43;22.20;99.90
20102;DHT22;10210;52.284;9.892;2023-07-24T03:33:09;22.20;99.90
20102;DHT22;10210;52.284;9.892;2023-07-24T03:35:34;22.10;99.90
20102;DHT22;10210;52.284;9.892;2023-07-24T03:38:00;22.20;99.90
20102;DHT22;10210;52.284;9.892;2023-07-24T03:40:26;22.10;99.90
20102;DHT22;10210;52.284;9.892;2023-07-24T03:42:52;22.10;99.90
20102;DHT22;10210;52.284;9.892;2023-07-24T03:45:18;22.10;99.90
20102;DHT22;10210;52.284;9.892;2023-07-24T03:47:43;22.10;99.90
20102;DHT22;10210;52.284;9.892;2023-07-24T03:50:09;22.00;99.90
20102;DHT22;10210;52.284;9.892;2023-07-24T03:52:35;22.00;99.90
20102;DHT22;10210;52.284;9.892;2023-07-24T03:55:01;22.00;99.90
20102;DHT22;10210;52.284;9.892;2023-07-24T03:57:27;22.00;99.90
20102;DHT22;10210;52.284;9.892;2023-07-24T03:59:53;22.00;99.90
20102;DHT22;10210;52.284;9.892;2023-07-24T04:02:19;22.00;99.90
20102;DHT22;10210;52.284;9.892;2023-07-24T04:04:44;22.00;99.90
20102;DHT22;10210;52.284;9.892;2023-07-24T04:07:10;22.00;99.90
20102;DHT22;10210;52.284;9.892;2023-07-24T04:09:35;21.90;99.90
20102;DHT22;10210;52.284;9.892;2023-07-24T04:12:01;22.00;99.90
20102;DHT22;10210;52.284;9.892;2023-07-24T04:14:27;22.00;99.90
20102;DHT22;10210;52.284;9.892;2023-07-24T04:16:53;21.90;99.90
20102;DHT22;10210;52.284;9.892;2023-07-24T04:19:19;21.90;99.90
20102;DHT22;10210;52.284;9.892;2023-07-24T04:21:44;21.90;99.90
20102;DHT22;10210;52.284;9.892;2023-07-24T04:24:10;21.90;99.90
20102;DHT22;10210;52.284;9.892;2023-07-24T04:26:36;21.90;99.90
20102;DHT22;10210;52.284;9.892;2023-07-24T04:29:01;21.90;99.90
20102;DHT22;10210;52.284;9.892;2023-07-24T04:31:27;21.90;99.90
20102;DHT22;10210;52.284;9.892;2023-07-24T04:33:52;21.80;99.90
20102;DHT22;10210;52.284;9.892;2023-07-24T04:36:18;21.80;99.90
20102;DHT22;10210;52.284;9.892;2023-07-24T04:38:44;21.80;99.90
20102;DHT22;10210;52.284;9.892;2023-07-24T04:41:11;21.80;99.90
20102;DHT22;10210;52.284;9.892;2023-07-24T04:43:37;21.80;99.90
20102;DHT22;10210;52.284;9.892;2023-07-24T04:46:03;21.80;99.90
20102;DHT22;10210;52.284;9.892;2023-07-24T04:48:29;21.80;99.90
20102;DHT22;10210;52.284;9.892;2023-07-24T04:50:55;21.80;99.90
20102;DHT22;10210;52.284;9.892;2023-07-24T04:53:22;21.80;99.90
20102;DHT22;10210;52.284;9.892;2023-07-24T04:55:48;21.80;99.90
20102;DHT22;10210;52.284;9.892;2023-07-24T04:58:13;21.80;99.90
20102;DHT22;10210;52.284;9.892;2023-07-24T05:00:39;21.80;99.90
20102;DHT22;10210;52.284;9.892;2023-07-24T05:03:05;21.80;99.90
20102;DHT22;10210;52.284;9.892;2023-07-24T05:05:33;21.90;99.90
20102;DHT22;10210;52.284;9.892;2023-07-24T05:07:59;21.90;99.90
20102;DHT22;10210;52.284;9.892;2023-07-24T05:10:24;22.00;99.90
20102;DHT22;10210;52.284;9.892;2023-07-24T05:12:50;22.00;99.90
20102;DHT22;10210;52.284;9.892;2023-07-24T05:15:16;22.10;99.90
20102;DHT22;10210;52.284;9.892;2023-07-24T05:17:44;22.20;99.90
20102;DHT22;10210;52.284;9.892;2023-07-24T05:20:10;22.20;99.90
20102;DHT22;10210;52.284;9.892;2023-07-24T05:22:36;22.20;99.90
20102;DHT22;10210;52.284;9.892;2023-07-24T05:25:02;22.30;99.90
20102;DHT22;10210;52.284;9.892;2023-07-24T05:27:28;22.30;99.90
20102;DHT22;10210;52.284;9.892;2023-07-24T05:29:55;22.30;99.90
20102;DHT22;10210;52.284;9.892;2023-07-24T05:32:21;22.40;99.90
20102;DHT22;10210;52.284;9.892;2023-07-24T05:34:46;22.40;99.90
20102;DHT22;10210;52.284;9.892;2023-07-24T05:37:12;22.50;99.90
20102;DHT22;10210;52.284;9.892;2023-07-24T05:39:38;22.50;99.90
20102;DHT22;10210;52.284;9.892;2023-07-24T05:42:03;22.50;99.90
20102;DHT22;10210;52.284;9.892;2023-07-24T05:44:29;22.60;99.90
20102;DHT22;10210;52.284;9.892;2023-07-24T05:46:55;22.60;99.90
20102;DHT22;10210;52.284;9.892;2023-07-24T05:49:20;22.70;99.90
20102;DHT22;10210;52.284;9.892;2023-07-24T05:51:46;22.70;99.90
20102;DHT22;10210;52.284;9.892;2023-07-24T05:54:12;22.70;99.90
20102;DHT22;10210;52.284;9.892;2023-07-24T05:56:37;22.70;99.90
20102;DHT22;10210;52.284;9.892;2023-07-24T05:59:03;22.70;99.90
20102;DHT22;10210;52.284;9.892;2023-07-24T06:01:29;22.70;99.90
20102;DHT22;10210;52.284;9.892;2023-07-24T06:03:54;22.60;99.90
20102;DHT22;10210;52.284;9.892;2023-07-24T06:06:20;22.60;99.90
20102;DHT22;10210;52.284;9.892;2023-07-24T06:08:45;22.60;99.90
20102;DHT22;10210;52.284;9.892;2023-07-24T06:11:12;22.50;99.90
20102;DHT22;10210;52.284;9.892;2023-07-24T06:13:38;22.50;99.90
20102;DHT22;10210;52.284;9.892;2023-07-24T06:16:04;22.50;99.90
20102;DHT22;10210;52.284;9.892;2023-07-24T06:18:29;22.40;99.90
20102;DHT22;10210;52.284;9.892;2023-07-24T06:20:55;22.40;99.90
20102;DHT22;10210;52.284;9.892;2023-07-24T06:23:21;22.40;99.90
20102;DHT22;10210;52.284;9.892;2023-07-24T06:25:46;22.50;99.90
20102;DHT22;10210;52.284;9.892;2023-07-24T06:28:12;22.50;99.90
20102;DHT22;10210;52.284;9.892;2023-07-24T06:30:38;22.60;99.90
20102;DHT22;10210;52.284;9.892;2023-07-24T06:33:04;22.60;99.90
20102;DHT22;10210;52.284;9.892;2023-07-24T06:35:30;22.70;99.90
20102;DHT22;10210;52.284;9.892;2023-07-24T06:37:56;22.70;99.90
20102;DHT22;10210;52.284;9.892;2023-07-24T06:40:22;22.70;99.90
20102;DHT22;10210;52.284;9.892;2023-07-24T06:42:47;22.80;99.90
20102;DHT22;10210;52.284;9.892;2023-07-24T06:45:13;22.90;99.90
20102;DHT22;10210;52.284;9.892;2023-07-24T06:47:39;23.00;99.90
20102;DHT22;10210;52.284;9.892;2023-07-24T06:50:05;23.00;99.90
20102;DHT22;10210;52.284;9.892;2023-07-24T06:52:32;23.00;99.90
20102;DHT22;10210;52.284;9.892;2023-07-24T06:54:58;23.00;99.90
20102;DHT22;10210;52.284;9.892;2023-07-24T06:57:24;23.00;99.90
20102;DHT22;10210;52.284;9.892;2023-07-24T06:59:50;23.10;99.90
20102;DHT22;10210;52.284;9.892;2023-07-24T07:02:16;23.10;99.90
20102;DHT22;10210;52.284;9.892;2023-07-24T07:04:42;23.10;99.90
20102;DHT22;10210;52.284;9.892;2023-07-24T07:07:08;23.20;99.90
20102;DHT22;10210;52.284;9.892;2023-07-24T07:09:35;23.20;99.90
20102;DHT22;10210;52.284;9.892;2023-07-24T07:12:01;23.20;99.90
20102;DHT22;10210;52.284;9.892;2023-07-24T07:14:26;23.30;99.90
20102;DHT22;10210;52.284;9.892;2023-07-24T07:16:52;23.30;99.90
20102;DHT22;10210;52.284;9.892;2023-07-24T07:19:17;23.30;99.90
20102;DHT22;10210;52.284;9.892;2023-07-24T07:21:43;23.30;99.90
20102;DHT22;10210;52.284;9.892;2023-07-24T07:24:09;23.30;99.90
20102;DHT22;10210;52.284;9.892;2023-07-24T07:26:34;23.40;99.90
20102;DHT22;10210;52.284;9.892;2023-07-24T07:29:00;23.40;99.90
20102;DHT22;10210;52.284;9.892;2023-07-24T07:31:26;23.40;99.90
20102;DHT22;10210;52.284;9.892;2023-07-24T07:33:51;23.50;99.90
20102;DHT22;10210;52.284;9.892;2023-07-24T07:36:17;23.60;99.90
20102;DHT22;10210;52.284;9.892;2023-07-24T07:38:48;23.60;99.90
20102;DHT22;10210;52.284;9.892;2023-07-24T07:41:13;23.70;99.90
20102;DHT22;10210;52.284;9.892;2023-07-24T07:43:39;23.80;99.90
20102;DHT22;10210;52.284;9.892;2023-07-24T07:46:05;23.90;99.90
20102;DHT22;10210;52.284;9.892;2023-07-24T07:48:31;23.90;99.90
20102;DHT22;10210;52.284;9.892;2023-07-24T07:50:58;24.00;99.90
20102;DHT22;10210;52.284;9.892;2023-07-24T07:53:23;24.10;99.90
20102;DHT22;10210;52.284;9.892;2023-07-24T07:55:56;24.20;99.90
20102;DHT22;10210;52.284;9.892;2023-07-24T07:58:23;24.20;99.90
20102;DHT22;10210;52.284;9.892;2023-07-24T08:00:49;24.30;99.90
20102;DHT22;10210;52.284;9.892;2023-07-24T08:03:16;24.30;99.90
20102;DHT22;10210;52.284;9.892;2023-07-24T08:05:41;24.20;99.90
20102;DHT22;10210;52.284;9.892;2023-07-24T08:08:08;24.20;99.90
20102;DHT22;10210;52.284;9.892;2023-07-24T08:10:37;24.30;99.90
20102;DHT22;10210;52.284;9.892;2023-07-24T08:13:03;24.20;99.90
20102;DHT22;10210;52.284;9.892;2023-07-24T08:15:29;24.20;99.90
20102;DHT22;10210;52.284;9.892;2023-07-24T08:17:59;24.10;99.90
20102;DHT22;10210;52.284;9.892;2023-07-24T08:20:25;24.00;99.90
20102;DHT22;10210;52.284;9.892;2023-07-24T08:22:50;23.90;99.90
20102;DHT22;10210;52.284;9.892;2023-07-24T08:25:16;23.70;99.90
20102;DHT22;10210;52.284;9.892;2023-07-24T08:27:43;23.50;99.90
20102;DHT22;10210;52.284;9.892;2023-07-24T08:30:09;23.30;99.90
20102;DHT22;10210;52.284;9.892;2023-07-24T08:32:35;23.10;99.90
20102;DHT22;10210;52.284;9.892;2023-07-24T08:35:00;22.90;99.90
20102;DHT22;10210;52.284;9.892;2023-07-24T08:37:26;22.70;99.90
20102;DHT22;10210;52.284;9.892;2023-07-24T08:39:52;22.50;99.90
20102;DHT22;10210;52.284;9.892;2023-07-24T08:42:17;22.40;99.90
20102;DHT22;10210;52.284;9.892;2023-07-24T08:44:45;22.30;99.90
20102;DHT22;10210;52.284;9.892;2023-07-24T08:47:11;22.30;99.90
20102;DHT22;10210;52.284;9.892;2023-07-24T08:49:39;22.30;99.90
20102;DHT22;10210;52.284;9.892;2023-07-24T08:52:08;22.30;99.90
20102;DHT22;10210;52.284;9.892;2023-07-24T08:54:38;22.40;99.90
20102;DHT22;10210;52.284;9.892;2023-07-24T08:57:08;22.50;99.90
20102;DHT22;10210;52.284;9.892;2023-07-24T08:59:34;22.60;99.90
20102;DHT22;10210;52.284;9.892;2023-07-24T09:02:01;22.80;99.90
20102;DHT22;10210;52.284;9.892;2023-07-24T09:04:27;23.00;99.90
20102;DHT22;10210;52.284;9.892;2023-07-24T09:06:53;23.20;99.90
20102;DHT22;10210;52.284;9.892;2023-07-24T09:09:21;23.50;99.90
20102;DHT22;10210;52.284;9.892;2023-07-24T09:11:51;23.80;99.90
20102;DHT22;10210;52.284;9.892;2023-07-24T09:14:22;24.10;99.90
20102;DHT22;10210;52.284;9.892;2023-07-24T09:17:08;24.30;99.90
20102;DHT22;10210;52.284;9.892;2023-07-24T09:19:36;24.50;99.90
20102;DHT22;10210;52.284;9.892;2023-07-24T09:22:12;24.50;99.90
20102;DHT22;10210;52.284;9.892;2023-07-24T09:24:56;24.60;99.90
20102;DHT22;10210;52.284;9.892;2023-07-24T09:27:27;24.60;99.90
20102;DHT22;10210;52.284;9.892;2023-07-24T09:29:55;24.70;99.90
20102;DHT22;10210;52.284;9.892;2023-07-24T09:32:22;24.80;99.90
20102;DHT22;10210;52.284;9.892;2023-07-24T09:34:50;24.90;99.90
20102;DHT22;10210;52.284;9.892;2023-07-24T09:37:42;25.10;99.90
20102;DHT22;10210;52.284;9.892;2023-07-24T09:40:09;25.30;99.90
20102;DHT22;10210;52.284;9.892;2023-07-24T09:42:36;25.50;99.90
20102;DHT22;10210;52.284;9.892;2023-07-24T09:45:04;25.60;99.90
20102;DHT22;10210;52.284;9.892;2023-07-24T09:47:31;25.70;99.90
20102;DHT22;10210;52.284;9.892;2023-07-24T09:49:57;25.90;99.90
20102;DHT22;10210;52.284;9.892;2023-07-24T09:52:24;25.90;99.90
20102;DHT22;10210;52.284;9.892;2023-07-24T09:55:29;26.00;99.90
20102;DHT22;10210;52.284;9.892;2023-07-24T09:58:00;26.20;99.90
20102;DHT22;10210;52.284;9.892;2023-07-24T10:00:27;26.40;99.90
20102;DHT22;10210;52.284;9.892;2023-07-24T10:02:54;26.50;99.90
20102;DHT22;10210;52.284;9.892;2023-07-24T10:05:20;26.70;99.90
20102;DHT22;10210;52.284;9.892;2023-07-24T10:07:46;26.70;99.90
20102;DHT22;10210;52.284;9.892;2023-07-24T10:10:12;26.90;99.90
20102;DHT22;10210;52.284;9.892;2023-07-24T10:12:39;26.90;99.90
20102;DHT22;10210;52.284;9.892;2023-07-24T10:15:06;27.00;99.90
20102;DHT22;10210;52.284;9.892;2023-07-24T10:20:06;27.10;99.90
20102;DHT22;10210;52.284;9.892;2023-07-24T10:22:35;27.10;99.90
20102;DHT22;10210;52.284;9.892;2023-07-24T10:25:03;27.10;99.90
20102;DHT22;10210;52.284;9.892;2023-07-24T10:27:29;27.10;99.90
20102;DHT22;10210;52.284;9.892;2023-07-24T10:30:03;27.00;99.90
20102;DHT22;10210;52.284;9.892;2023-07-24T10:32:30;27.00;99.90
20102;DHT22;10210;52.284;9.892;2023-07-24T10:35:09;27.00;99.90
20102;DHT22;10210;52.284;9.892;2023-07-24T10:37:36;26.90;99.90
20102;DHT22;10210;52.284;9.892;2023-07-24T10:40:06;26.90;99.90
20102;DHT22;10210;52.284;9.892;2023-07-24T10:42:43;26.90;99.90
20102;DHT22;10210;52.284;9.892;2023-07-24T10:45:09;26.70;99.90
20102;DHT22;10210;52.284;9.892;2023-07-24T10:47:36;26.70;99.90
20102;DHT22;10210;52.284;9.892;2023-07-24T10:50:02;26.60;99.90
20102;DHT22;10210;52.284;9.892;2023-07-24T10:52:30;26.50;99.90
20102;DHT22;10210;52.284;9.892;2023-07-24T10:55:00;26.50;99.90
20102;DHT22;10210;52.284;9.892;2023-07-24T10:57:28;26.40;99.90
20102;DHT22;10210;52.284;9.892;2023-07-24T10:59:55;26.20;99.90
20102;DHT22;10210;52.284;9.892;2023-07-24T11:02:21;26.20;99.90
20102;DHT22;10210;52.284;9.892;2023-07-24T11:04:47;26.10;99.90
20102;DHT22;10210;52.284;9.892;2023-07-24T11:07:13;26.10;99.90
20102;DHT22;10210;52.284;9.892;2023-07-24T11:09:40;26.10;99.90
20102;DHT22;10210;52.284;9.892;2023-07-24T11:12:13;26.10;99.90
20102;DHT22;10210;52.284;9.892;2023-07-24T11:14:49;26.10;99.90
20102;DHT22;10210;52.284;9.892;2023-07-24T11:17:16;26.10;99.90
20102;DHT22;10210;52.284;9.892;2023-07-24T11:19:42;26.10;99.90
20102;DHT22;10210;52.284;9.892;2023-07-24T11:22:08;26.10;99.90
20102;DHT22;10210;52.284;9.892;2023-07-24T11:24:47;26.10;99.90
20102;DHT22;10210;52.284;9.892;2023-07-24T11:27:14;26.10;99.90
20102;DHT22;10210;52.284;9.892;2023-07-24T11:29:47;26.00;99.90
20102;DHT22;10210;52.284;9.892;2023-07-24T11:32:18;26.00;99.90
20102;DHT22;10210;52.284;9.892;2023-07-24T11:34:46;26.00;99.90
20102;DHT22;10210;52.284;9.892;2023-07-24T11:37:13;26.10;99.90
20102;DHT22;10210;52.284;9.892;2023-07-24T11:39:39;26.10;99.90
20102;DHT22;10210;52.284;9.892;2023-07-24T11:42:05;26.10;99.90
20102;DHT22;10210;52.284;9.892;2023-07-24T11:44:32;26.20;99.90
20102;DHT22;10210;52.284;9.892;2023-07-24T11:47:02;26.30;99.90
20102;DHT22;10210;52.284;9.892;2023-07-24T11:49:30;26.40;99.90
20102;DHT22;10210;52.284;9.892;2023-07-24T11:52:06;26.60;99.90
20102;DHT22;10210;52.284;9.892;2023-07-24T11:54:34;26.70;99.90
20102;DHT22;10210;52.284;9.892;2023-07-24T11:57:00;26.80;99.90
20102;DHT22;10210;52.284;9.892;2023-07-24T11:59:26;26.90;99.90
20102;DHT22;10210;52.284;9.892;2023-07-24T12:01:52;27.00;99.90
20102;DHT22;10210;52.284;9.892;2023-07-24T12:04:18;27.10;99.90
20102;DHT22;10210;52.284;9.892;2023-07-24T12:06:45;27.20;99.90
20102;DHT22;10210;52.284;9.892;2023-07-24T12:09:12;27.20;99.90
20102;DHT22;10210;52.284;9.892;2023-07-24T12:11:44;27.30;99.90
20102;DHT22;10210;52.284;9.892;2023-07-24T12:14:12;27.30;99.90
20102;DHT22;10210;52.284;9.892;2023-07-24T12:16:38;27.40;99.90
20102;DHT22;10210;52.284;9.892;2023-07-24T12:19:04;27.40;99.90
20102;DHT22;10210;52.284;9.892;2023-07-24T12:21:30;27.40;99.90
20102;DHT22;10210;52.284;9.892;2023-07-24T12:23:56;27.30;99.90
20102;DHT22;10210;52.284;9.892;2023-07-24T12:26:21;27.30;99.90
20102;DHT22;10210;52.284;9.892;2023-07-24T12:28:50;27.20;99.90
20102;DHT22;10210;52.284;9.892;2023-07-24T12:31:16;27.10;99.90
20102;DHT22;10210;52.284;9.892;2023-07-24T12:33:42;27.00;99.90
20102;DHT22;10210;52.284;9.892;2023-07-24T12:36:08;26.90;99.90
20102;DHT22;10210;52.284;9.892;2023-07-24T12:38:34;26.80;99.90
20102;DHT22;10210;52.284;9.892;2023-07-24T12:40:59;26.70;99.90
20102;DHT22;10210;52.284;9.892;2023-07-24T12:43:25;26.60;99.90
20102;DHT22;10210;52.284;9.892;2023-07-24T12:45:51;26.40;99.90
20102;DHT22;10210;52.284;9.892;2023-07-24T12:48:16;26.30;99.90
20102;DHT22;10210;52.284;9.892;2023-07-24T12:50:43;26.20;99.90
20102;DHT22;10210;52.284;9.892;2023-07-24T12:53:08;26.10;99.90
20102;DHT22;10210;52.284;9.892;2023-07-24T12:55:34;26.00;99.90
20102;DHT22;10210;52.284;9.892;2023-07-24T12:58:00;25.80;99.90
20102;DHT22;10210;52.284;9.892;2023-07-24T13:00:27;25.70;99.90
20102;DHT22;10210;52.284;9.892;2023-07-24T13:02:52;25.60;99.90
20102;DHT22;10210;52.284;9.892;2023-07-24T13:05:18;25.50;99.90
20102;DHT22;10210;52.284;9.892;2023-07-24T13:07:44;25.40;99.90
20102;DHT22;10210;52.284;9.892;2023-07-24T13:10:11;25.20;99.90
20102;DHT22;10210;52.284;9.892;2023-07-24T13:12:37;25.00;99.90
20102;DHT22;10210;52.284;9.892;2023-07-24T13:15:03;24.90;99.90
20102;DHT22;10210;52.284;9.892;2023-07-24T13:17:29;24.80;99.90
20102;DHT22;10210;52.284;9.892;2023-07-24T13:19:55;24.80;99.90
20102;DHT22;10210;52.284;9.892;2023-07-24T13:22:20;24.80;99.90
20102;DHT22;10210;52.284;9.892;2023-07-24T13:24:46;24.90;99.90
20102;DHT22;10210;52.284;9.892;2023-07-24T13:27:12;24.90;99.90
20102;DHT22;10210;52.284;9.892;2023-07-24T13:29:37;25.00;99.90
20102;DHT22;10210;52.284;9.892;2023-07-24T13:32:03;25.10;99.90
20102;DHT22;10210;52.284;9.892;2023-07-24T13:34:29;25.10;99.90
20102;DHT22;10210;52.284;9.892;2023-07-24T13:36:55;25.20;99.90
20102;DHT22;10210;52.284;9.892;2023-07-24T13:39:21;25.20;99.90
20102;DHT22;10210;52.284;9.892;2023-07-24T13:41:47;25.30;99.90
20102;DHT22;10210;52.284;9.892;2023-07-24T13:44:13;25.30;99.90
20102;DHT22;10210;52.284;9.892;2023-07-24T13:46:39;25.30;99.90
20102;DHT22;10210;52.284;9.892;2023-07-24T13:49:04;25.40;99.90
20102;DHT22;10210;52.284;9.892;2023-07-24T13:51:30;25.40;99.90
20102;DHT22;10210;52.284;9.892;2023-07-24T13:53:56;25.40;99.90
20102;DHT22;10210;52.284;9.892;2023-07-24T13:56:21;25.40;99.90
20102;DHT22;10210;52.284;9.892;2023-07-24T13:58:50;25.40;99.90
20102;DHT22;10210;52.284;9.892;2023-07-24T14:01:16;25.40;99.90
20102;DHT22;10210;52.284;9.892;2023-07-24T14:03:41;25.50;99.90
20102;DHT22;10210;52.284;9.892;2023-07-24T14:06:08;25.40;99.90
20102;DHT22;10210;52.284;9.892;2023-07-24T14:08:34;25.40;99.90
20102;DHT22;10210;52.284;9.892;2023-07-24T14:10:59;25.40;99.90
20102;DHT22;10210;52.284;9.892;2023-07-24T14:13:26;25.30;99.90
20102;DHT22;10210;52.284;9.892;2023-07-24T14:15:52;25.30;99.90
20102;DHT22;10210;52.284;9.892;2023-07-24T14:18:18;25.20;99.90
20102;DHT22;10210;52.284;9.892;2023-07-24T14:20:43;25.10;99.90
20102;DHT22;10210;52.284;9.892;2023-07-24T14:23:09;25.00;99.90
20102;DHT22;10210;52.284;9.892;2023-07-24T14:25:35;24.80;99.90
20102;DHT22;10210;52.284;9.892;2023-07-24T14:28:00;24.50;99.90
20102;DHT22;10210;52.284;9.892;2023-07-24T14:30:26;24.20;99.90
20102;DHT22;10210;52.284;9.892;2023-07-24T14:32:52;23.90;99.90
20102;DHT22;10210;52.284;9.892;2023-07-24T14:35:18;23.70;99.90
20102;DHT22;10210;52.284;9.892;2023-07-24T14:37:43;23.50;99.90
20102;DHT22;10210;52.284;9.892;2023-07-24T14:40:10;23.30;99.90
20102;DHT22;10210;52.284;9.892;2023-07-24T14:42:39;23.20;99.90
20102;DHT22;10210;52.284;9.892;2023-07-24T14:45:06;23.00;99.90
20102;DHT22;10210;52.284;9.892;2023-07-24T14:47:33;23.00;99.90
20102;DHT22;10210;52.284;9.892;2023-07-24T14:49:59;22.90;99.90
20102;DHT22;10210;52.284;9.892;2023-07-24T14:52:25;22.80;99.90
20102;DHT22;10210;52.284;9.892;2023-07-24T14:54:50;22.80;99.90
20102;DHT22;10210;52.284;9.892;2023-07-24T14:57:16;22.70;99.90
20102;DHT22;10210;52.284;9.892;2023-07-24T14:59:42;22.70;99.90
20102;DHT22;10210;52.284;9.892;2023-07-24T15:02:08;22.60;99.90
20102;DHT22;10210;52.284;9.892;2023-07-24T15:04:34;22.60;99.90
20102;DHT22;10210;52.284;9.892;2023-07-24T15:06:59;22.50;99.90
20102;DHT22;10210;52.284;9.892;2023-07-24T15:09:25;22.50;99.90
20102;DHT22;10210;52.284;9.892;2023-07-24T15:11:51;22.40;99.90
20102;DHT22;10210;52.284;9.892;2023-07-24T15:14:16;22.40;99.90
20102;DHT22;10210;52.284;9.892;2023-07-24T15:16:42;22.40;99.90
20102;DHT22;10210;52.284;9.892;2023-07-24T15:19:08;22.40;99.90
20102;DHT22;10210;52.284;9.892;2023-07-24T15:21:34;22.40;99.90
20102;DHT22;10210;52.284;9.892;2023-07-24T15:23:59;22.40;99.90
20102;DHT22;10210;52.284;9.892;2023-07-24T15:26:25;22.40;99.90
20102;DHT22;10210;52.284;9.892;2023-07-24T15:28:50;22.40;99.90
20102;DHT22;10210;52.284;9.892;2023-07-24T15:31:16;22.40;99.90